Aviation Digital Data Service (ADDS)

Output produced by METARs form (1349 UTC 27 November 2021)
found at http://www.aviationweather.gov/metar/data/
 
METAR text: KGYI 271250Z 17006KT 10SM SKC 05/M01 A3009
Conditions at: KGYI (SHERMAN/DENISON , TX, US) observed 1250 UTC 27 November 2021
Temperature: 5.0°C (41°F)
Dewpoint: -1.0°C (30°F) [RH = 65%]
Pressure (altimeter): 30.09 inches Hg (1019.0 mb)
Winds: from the S (170 degrees) at 7 MPH (6 knots; 3.1 m/s)
Visibility: 10 or more miles (16+ km)
Ceiling: at least 12,000 feet AGL
Clouds: clear skies
Weather: no significant weather observed at this time